Time;durP1;ratioP1;P1;durP2;ratioP2;P2;SDS_P1;SDS_P2;PMS_P1;PMS_P2;Temp;Humidity;BMP_temperature;BMP_pressure;BME280_temperature;BME280_humidity;BME280_pressure;Samples;Min_cycle;Max_cycle;Signal;HPM_P1;HPM_P2
2023/09/13 00:00:26;;;;;;;17.20;11.90;;;;;;;;;;5104754;28;20357;-56
2023/09/13 00:02:52;;;;;;;13.48;11.45;;;;;;;;;;5085532;28;20339;-53
2023/09/13 00:05:19;;;;;;;18.95;12.40;;;;;;;;;;5104482;28;20011;-52
2023/09/13 00:07:45;;;;;;;16.15;11.90;;;;;;;;;;5104078;28;20020;-57
2023/09/13 00:10:12;;;;;;;14.90;10.93;;;;;;;;;;5104469;28;20091;-54
2023/09/13 00:12:39;;;;;;;16.73;9.82;;;;;;;;;;5108233;28;20027;-50
2023/09/13 00:15:06;;;;;;;9.25;7.63;;;;;;;;;;5109027;28;20020;-55
2023/09/13 00:17:33;;;;;;;12.00;7.30;;;;;;;;;;5108526;28;20222;-56
2023/09/13 00:19:59;;;;;;;10.13;6.25;;;;;;;;;;5102477;28;20051;-53
2023/09/13 00:22:27;;;;;;;7.35;6.38;;;;;;;;;;5084161;28;20066;-55
2023/09/13 00:24:57;;;;;;;10.02;6.05;;;;;;;;;;5084114;28;20025;-51
2023/09/13 00:27:23;;;;;;;7.30;5.93;;;;;;;;;;5085679;28;20123;-51
2023/09/13 00:29:50;;;;;;;8.25;5.90;;;;;;;;;;5104233;28;20023;-52
2023/09/13 00:32:17;;;;;;;7.60;5.45;;;;;;;;;;5104188;28;20047;-52
2023/09/13 00:34:43;;;;;;;9.00;5.50;;;;;;;;;;5104398;28;20054;-50
2023/09/13 00:37:10;;;;;;;9.23;5.32;;;;;;;;;;5103968;28;20084;-49
2023/09/13 00:39:37;;;;;;;5.70;5.10;;;;;;;;;;5104207;28;20211;-52
2023/09/13 00:42:03;;;;;;;7.60;4.40;;;;;;;;;;5103684;28;20050;-50
2023/09/13 00:44:31;;;;;;;6.13;4.60;;;;;;;;;;5103992;28;20020;-48
2023/09/13 00:46:58;;;;;;;7.45;4.38;;;;;;;;;;5103754;28;20076;-49
2023/09/13 00:49:24;;;;;;;6.53;4.50;;;;;;;;;;5103944;28;20020;-50
2023/09/13 00:51:51;;;;;;;9.38;4.38;;;;;;;;;;5104059;28;20311;-48
2023/09/13 00:54:18;;;;;;;7.68;4.00;;;;;;;;;;5104029;28;20319;-48
2023/09/13 00:56:45;;;;;;;8.23;4.13;;;;;;;;;;5103335;28;20215;-49
2023/09/13 00:59:12;;;;;;;7.80;4.20;;;;;;;;;;5104062;28;20020;-50
2023/09/13 01:01:39;;;;;;;6.93;4.38;;;;;;;;;;5094126;28;20039;-49
2023/09/13 01:04:05;;;;;;;6.15;3.95;;;;;;;;;;5100450;28;20189;-56
2023/09/13 01:06:34;;;;;;;19.42;4.53;;;;;;;;;;5104378;28;20181;-49
2023/09/13 01:09:03;;;;;;;6.20;4.28;;;;;;;;;;5103976;28;20040;-45
2023/09/13 01:11:30;;;;;;;8.23;4.13;;;;;;;;;;5103900;28;20359;-47
2023/09/13 01:13:57;;;;;;;5.15;3.85;;;;;;;;;;5106945;28;20057;-43
2023/09/13 01:16:46;;;;;;;5.80;3.80;;;;;;;;;;5107732;28;20056;-51
2023/09/13 01:19:13;;;;;;;8.18;4.25;;;;;;;;;;5101927;28;20013;-53
2023/09/13 01:21:45;;;;;;;6.55;4.43;;;;;;;;;;5096269;28;20170;-45
2023/09/13 01:24:30;;;;;;;7.45;4.20;;;;;;;;;;5087512;28;20016;-44
2023/09/13 01:27:04;;;;;;;8.23;4.60;;;;;;;;;;5086892;28;20371;-48
2023/09/13 01:29:34;;;;;;;8.85;6.88;;;;;;;;;;5097486;28;20031;-45
2023/09/13 01:47:59;;;;;;;6.30;4.15;;;;;;;;;;5090173;27;20462;-58
2023/09/13 01:50:25;;;;;;;6.55;4.28;;;;;;;;;;5086952;28;20086;-53
2023/09/13 01:52:52;;;;;;;7.55;4.60;;;;;;;;;;5093942;28;20027;-57
2023/09/13 01:55:19;;;;;;;8.75;4.57;;;;;;;;;;5081707;28;20075;-63
2023/09/13 01:57:45;;;;;;;6.78;4.70;;;;;;;;;;5080811;28;20070;-50
2023/09/13 02:00:12;;;;;;;7.10;4.90;;;;;;;;;;5085642;28;20047;-56
2023/09/13 02:02:39;;;;;;;6.45;5.03;;;;;;;;;;5095811;28;20079;-55
2023/09/13 02:05:06;;;;;;;8.25;5.00;;;;;;;;;;5099053;28;20533;-56
2023/09/13 02:07:32;;;;;;;6.05;4.68;;;;;;;;;;5097134;28;20315;-58
2023/09/13 02:10:00;;;;;;;6.97;4.63;;;;;;;;;;5095168;28;20020;-59
2023/09/13 02:12:27;;;;;;;7.95;5.00;;;;;;;;;;5088002;28;20092;-58
2023/09/13 02:14:54;;;;;;;7.78;4.80;;;;;;;;;;5091877;28;20031;-60
2023/09/13 02:17:21;;;;;;;7.32;5.03;;;;;;;;;;5082915;28;20334;-57
2023/09/13 02:31:27;;;;;;;7.40;4.82;;;;;;;;;;6207664;22;2054357;-45
2023/09/13 02:33:54;;;;;;;6.78;4.82;;;;;;;;;;6296120;22;20015;-51
2023/09/13 02:36:24;;;;;;;5.60;5.00;;;;;;;;;;6295440;22;20003;-45
2023/09/13 02:38:51;;;;;;;13.73;5.18;;;;;;;;;;6295757;22;20008;-47
2023/09/13 02:41:18;;;;;;;11.30;4.75;;;;;;;;;;6295514;22;20014;-48
2023/09/13 02:43:45;;;;;;;5.60;4.57;;;;;;;;;;6295133;22;20000;-51
2023/09/13 02:46:12;;;;;;;7.95;4.75;;;;;;;;;;6295555;22;20037;-53
2023/09/13 02:48:39;;;;;;;23.95;7.65;;;;;;;;;;6295175;22;20004;-51
2023/09/13 02:51:05;;;;;;;18.23;6.45;;;;;;;;;;6294928;22;19996;-53
2023/09/13 02:53:32;;;;;;;12.88;5.35;;;;;;;;;;6294734;22;20314;-50
2023/09/13 02:56:08;;;;;;;17.95;5.78;;;;;;;;;;6295297;22;20006;-54
2023/09/13 02:58:37;;;;;;;9.55;4.80;;;;;;;;;;6295518;22;20339;-54
2023/09/13 03:01:03;;;;;;;9.18;5.13;;;;;;;;;;6295465;22;19999;-54
2023/09/13 03:03:31;;;;;;;12.32;5.32;;;;;;;;;;6295624;22;20021;-54
2023/09/13 03:06:10;;;;;;;20.70;6.25;;;;;;;;;;6295605;22;20011;-55
2023/09/13 03:08:36;;;;;;;11.40;5.32;;;;;;;;;;6295713;22;20004;-57
2023/09/13 03:11:16;;;;;;;16.25;5.22;;;;;;;;;;6295430;22;19999;-58
2023/09/13 03:13:43;;;;;;;9.73;4.68;;;;;;;;;;6268630;22;20021;-56
2023/09/13 03:16:13;;;;;;;12.07;5.00;;;;;;;;;;6295303;22;20193;-54
2023/09/13 03:18:40;;;;;;;9.10;5.38;;;;;;;;;;6295462;22;20023;-54
2023/09/13 03:21:08;;;;;;;32.58;8.05;;;;;;;;;;6295391;22;19995;-54
2023/09/13 03:23:37;;;;;;;115.57;12.38;;;;;;;;;;6295446;22;20030;-54
2023/09/13 03:26:11;;;;;;;70.10;10.38;;;;;;;;;;6294775;22;19999;-55
2023/09/13 03:28:38;;;;;;;35.33;6.90;;;;;;;;;;6295482;22;20022;-54
2023/09/13 03:31:09;;;;;;;20.40;6.47;;;;;;;;;;6290073;22;20011;-53
2023/09/13 03:33:36;;;;;;;44.90;7.90;;;;;;;;;;6288603;22;20015;-55
2023/09/13 03:36:03;;;;;;;98.05;10.88;;;;;;;;;;6288317;22;19999;-53
2023/09/13 03:38:29;;;;;;;80.63;11.55;;;;;;;;;;6288033;22;20008;-52
2023/09/13 03:40:56;;;;;;;74.57;9.68;;;;;;;;;;6288439;22;19987;-54
2023/09/13 03:43:24;;;;;;;62.72;10.32;;;;;;;;;;6287935;22;20006;-53
2023/09/13 03:45:50;;;;;;;114.38;14.02;;;;;;;;;;6287912;22;20006;-52
2023/09/13 03:48:17;;;;;;;84.30;12.68;;;;;;;;;;6287865;22;19998;-53
2023/09/13 03:50:44;;;;;;;93.07;12.40;;;;;;;;;;6288328;22;19999;-54
2023/09/13 03:53:10;;;;;;;107.55;13.30;;;;;;;;;;6288117;22;20003;-58
2023/09/13 03:55:37;;;;;;;112.00;11.57;;;;;;;;;;6288367;22;19998;-59
2023/09/13 03:58:04;;;;;;;105.53;11.55;;;;;;;;;;6288036;22;20003;-51
2023/09/13 04:00:30;;;;;;;83.53;10.80;;;;;;;;;;6287992;22;20223;-52
2023/09/13 04:02:57;;;;;;;68.35;9.63;;;;;;;;;;6288183;22;20010;-55
2023/09/13 04:05:24;;;;;;;60.22;8.57;;;;;;;;;;6286225;22;20287;-49
2023/09/13 04:07:50;;;;;;;26.45;6.18;;;;;;;;;;6287486;22;20389;-51
2023/09/13 04:10:17;;;;;;;24.20;5.72;;;;;;;;;;6287672;22;19996;-54
2023/09/13 04:12:43;;;;;;;18.65;5.60;;;;;;;;;;6260487;22;20202;-56
2023/09/13 04:15:10;;;;;;;14.55;5.13;;;;;;;;;;6288533;22;20008;-53
2023/09/13 04:17:37;;;;;;;44.63;6.70;;;;;;;;;;6288155;22;20050;-57
2023/09/13 04:20:04;;;;;;;39.05;6.85;;;;;;;;;;6288222;22;20023;-57
2023/09/13 04:22:31;;;;;;;35.65;6.28;;;;;;;;;;6287855;22;20048;-57
2023/09/13 04:24:58;;;;;;;21.60;5.78;;;;;;;;;;6288631;22;20158;-58
2023/09/13 04:27:25;;;;;;;10.10;4.60;;;;;;;;;;6287982;22;19995;-53
2023/09/13 04:29:52;;;;;;;8.23;4.43;;;;;;;;;;6287667;22;20184;-55
2023/09/13 04:32:19;;;;;;;8.77;4.55;;;;;;;;;;6287896;22;20287;-55
2023/09/13 04:34:46;;;;;;;7.53;4.15;;;;;;;;;;6288444;22;20031;-57
2023/09/13 04:37:15;;;;;;;7.80;4.80;;;;;;;;;;6287701;22;20024;-56
2023/09/13 04:39:42;;;;;;;8.82;4.55;;;;;;;;;;6288194;22;20015;-55
2023/09/13 04:42:08;;;;;;;7.82;4.55;;;;;;;;;;6287294;22;19996;-55
2023/09/13 04:44:35;;;;;;;7.10;3.90;;;;;;;;;;6287762;22;20034;-56
2023/09/13 04:47:02;;;;;;;8.15;4.18;;;;;;;;;;6287709;22;19988;-55
2023/09/13 04:49:29;;;;;;;6.88;4.10;;;;;;;;;;6288134;22;20010;-54
2023/09/13 04:51:59;;;;;;;6.97;4.32;;;;;;;;;;6287533;22;20004;-54
2023/09/13 04:54:26;;;;;;;7.68;4.07;;;;;;;;;;6288197;22;20294;-54
2023/09/13 04:56:54;;;;;;;6.30;3.65;;;;;;;;;;6287738;22;19999;-53
2023/09/13 04:59:24;;;;;;;5.50;4.07;;;;;;;;;;6287720;22;20055;-51
2023/09/13 05:01:51;;;;;;;8.52;4.15;;;;;;;;;;6287542;22;20007;-55
2023/09/13 05:04:17;;;;;;;7.03;3.80;;;;;;;;;;6287985;22;20303;-53
2023/09/13 05:06:44;;;;;;;8.63;4.07;;;;;;;;;;6287408;22;20000;-53
2023/09/13 05:09:11;;;;;;;5.97;3.97;;;;;;;;;;6287855;22;19996;-54
2023/09/13 05:11:37;;;;;;;6.32;3.92;;;;;;;;;;6287607;22;20000;-53
2023/09/13 05:14:11;;;;;;;8.27;3.90;;;;;;;;;;6287559;22;20076;-53
2023/09/13 05:16:39;;;;;;;8.40;4.70;;;;;;;;;;6287567;22;19988;-52
2023/09/13 05:19:05;;;;;;;7.05;4.78;;;;;;;;;;6287582;22;20059;-53
2023/09/13 05:21:32;;;;;;;8.45;4.43;;;;;;;;;;6287251;22;20275;-54
2023/09/13 05:23:59;;;;;;;5.25;4.53;;;;;;;;;;6287630;22;20198;-54
2023/09/13 05:26:26;;;;;;;8.60;4.72;;;;;;;;;;6287424;22;20238;-53
2023/09/13 05:28:52;;;;;;;6.88;4.35;;;;;;;;;;6286937;22;20000;-53
2023/09/13 05:31:19;;;;;;;7.10;4.47;;;;;;;;;;6287320;22;20006;-53
2023/09/13 05:33:46;;;;;;;5.82;4.47;;;;;;;;;;6287457;22;20012;-55
2023/09/13 05:36:14;;;;;;;6.38;4.50;;;;;;;;;;6287105;22;19998;-53
2023/09/13 05:38:41;;;;;;;7.07;3.90;;;;;;;;;;6287162;22;20006;-53
2023/09/13 05:41:08;;;;;;;7.78;4.63;;;;;;;;;;6287255;22;20015;-53
2023/09/13 05:43:41;;;;;;;5.82;4.55;;;;;;;;;;6287214;22;19999;-52
2023/09/13 05:46:08;;;;;;;6.93;4.43;;;;;;;;;;6287185;22;20192;-54
2023/09/13 05:48:35;;;;;;;6.18;4.15;;;;;;;;;;6287166;22;20066;-53
2023/09/13 05:51:02;;;;;;;6.93;5.00;;;;;;;;;;6287022;22;20015;-54
2023/09/13 05:53:29;;;;;;;6.70;5.05;;;;;;;;;;6287269;22;20185;-54
2023/09/13 05:55:56;;;;;;;8.65;4.55;;;;;;;;;;6285121;22;20326;-56
2023/09/13 05:58:23;;;;;;;7.13;4.50;;;;;;;;;;6286876;22;20251;-53
2023/09/13 06:00:50;;;;;;;7.78;4.70;;;;;;;;;;6287157;22;19995;-56
2023/09/13 06:03:17;;;;;;;6.75;5.07;;;;;;;;;;6285034;22;20004;-54
2023/09/13 06:05:44;;;;;;;5.55;4.43;;;;;;;;;;6286943;22;20267;-53
2023/09/13 06:08:11;;;;;;;8.82;4.78;;;;;;;;;;6285071;22;19995;-54
2023/09/13 06:10:37;;;;;;;4.72;4.28;;;;;;;;;;6286019;22;20000;-59
2023/09/13 06:13:04;;;;;;;5.55;4.25;;;;;;;;;;6286769;22;20026;-56
2023/09/13 06:15:31;;;;;;;5.72;4.22;;;;;;;;;;6287021;22;20000;-51
2023/09/13 06:17:57;;;;;;;6.95;4.38;;;;;;;;;;6286679;22;20294;-53
2023/09/13 06:20:24;;;;;;;6.35;4.30;;;;;;;;;;6286575;22;20023;-54
2023/09/13 06:22:55;;;;;;;6.57;3.80;;;;;;;;;;6287043;22;20051;-52
2023/09/13 06:25:21;;;;;;;4.95;4.10;;;;;;;;;;6286998;22;20004;-52
2023/09/13 06:27:48;;;;;;;7.95;4.07;;;;;;;;;;6286836;22;19994;-52
2023/09/13 06:30:15;;;;;;;9.38;4.20;;;;;;;;;;6286994;22;20012;-53
2023/09/13 06:32:41;;;;;;;4.97;3.75;;;;;;;;;;6287023;22;20031;-52
2023/09/13 06:35:12;;;;;;;7.72;3.92;;;;;;;;;;6287056;22;20271;-51
2023/09/13 06:37:39;;;;;;;6.65;3.75;;;;;;;;;;6287014;22;20006;-54
2023/09/13 06:40:06;;;;;;;5.90;3.75;;;;;;;;;;6287111;22;20012;-51
2023/09/13 06:42:32;;;;;;;6.25;3.65;;;;;;;;;;6286551;22;19988;-54
2023/09/13 06:45:02;;;;;;;5.65;3.83;;;;;;;;;;6287399;22;20000;-55
2023/09/13 06:47:30;;;;;;;5.82;4.05;;;;;;;;;;6286907;22;20300;-53
2023/09/13 06:49:57;;;;;;;6.60;3.88;;;;;;;;;;6287292;22;19999;-55
2023/09/13 06:52:24;;;;;;;7.88;4.43;;;;;;;;;;6287007;22;20043;-61
2023/09/13 06:54:50;;;;;;;5.28;3.92;;;;;;;;;;6287420;22;20007;-56
2023/09/13 06:57:17;;;;;;;9.20;4.32;;;;;;;;;;6286645;22;20055;-53
2023/09/13 06:59:43;;;;;;;6.35;4.10;;;;;;;;;;6287319;22;20214;-50
2023/09/13 07:02:10;;;;;;;7.78;4.07;;;;;;;;;;6286748;22;20310;-51
2023/09/13 07:04:38;;;;;;;10.80;4.70;;;;;;;;;;6287024;22;20053;-54
2023/09/13 07:07:05;;;;;;;7.40;4.03;;;;;;;;;;6288617;22;19996;-58
2023/09/13 07:09:32;;;;;;;7.75;4.15;;;;;;;;;;6288978;22;20053;-54
2023/09/13 07:11:59;;;;;;;7.18;4.28;;;;;;;;;;6288488;22;19992;-47
2023/09/13 07:14:27;;;;;;;8.20;4.30;;;;;;;;;;6289195;22;20331;-52
2023/09/13 07:16:53;;;;;;;10.02;4.90;;;;;;;;;;6288698;22;20004;-54
2023/09/13 07:19:20;;;;;;;20.42;5.45;;;;;;;;;;6288629;22;20073;-54
2023/09/13 07:21:46;;;;;;;11.20;4.97;;;;;;;;;;6288720;22;20000;-55
2023/09/13 07:24:13;;;;;;;7.38;4.28;;;;;;;;;;6287394;22;20031;-54
2023/09/13 07:26:40;;;;;;;10.02;4.30;;;;;;;;;;6288377;22;19992;-52
2023/09/13 07:29:06;;;;;;;5.95;4.05;;;;;;;;;;6288553;22;20011;-53
2023/09/13 07:31:33;;;;;;;7.72;4.22;;;;;;;;;;6287002;22;20015;-49
2023/09/13 07:34:02;;;;;;;5.18;4.00;;;;;;;;;;6288090;22;20048;-56
2023/09/13 07:36:29;;;;;;;9.02;3.97;;;;;;;;;;6288152;22;20023;-58
2023/09/13 07:38:56;;;;;;;14.02;4.25;;;;;;;;;;6288533;22;20008;-54
2023/09/13 07:41:23;;;;;;;6.22;3.03;;;;;;;;;;6287941;22;20015;-54
2023/09/13 07:43:49;;;;;;;7.95;3.50;;;;;;;;;;6287236;22;20302;-54
2023/09/13 07:46:16;;;;;;;7.30;3.60;;;;;;;;;;6288294;22;20011;-54
2023/09/13 07:48:43;;;;;;;7.22;3.63;;;;;;;;;;6287908;22;19995;-54
2023/09/13 07:51:09;;;;;;;5.57;3.50;;;;;;;;;;6287452;22;20007;-54
2023/09/13 07:53:36;;;;;;;4.68;3.20;;;;;;;;;;6286795;22;20007;-55
2023/09/13 07:56:03;;;;;;;6.97;3.35;;;;;;;;;;6286400;22;20295;-64
2023/09/13 07:58:29;;;;;;;6.30;3.38;;;;;;;;;;6287418;22;20287;-57
2023/09/13 08:00:56;;;;;;;6.57;3.60;;;;;;;;;;6287661;22;20291;-56
2023/09/13 08:03:22;;;;;;;5.63;3.17;;;;;;;;;;6287923;22;19992;-53
2023/09/13 08:05:49;;;;;;;6.18;3.47;;;;;;;;;;6287789;22;19995;-56
2023/09/13 08:08:22;;;;;;;5.38;3.58;;;;;;;;;;6287030;22;20003;-52
2023/09/13 08:10:50;;;;;;;7.93;3.45;;;;;;;;;;6287625;22;20043;-49
2023/09/13 08:13:16;;;;;;;5.28;3.58;;;;;;;;;;6285211;22;20050;-53
2023/09/13 08:15:43;;;;;;;5.93;3.55;;;;;;;;;;6288077;22;20229;-53
2023/09/13 08:18:10;;;;;;;6.32;3.58;;;;;;;;;;6287707;22;19987;-56
2023/09/13 08:20:36;;;;;;;5.60;3.38;;;;;;;;;;6287984;22;20307;-52
2023/09/13 08:23:03;;;;;;;5.18;3.30;;;;;;;;;;6288056;22;19999;-52
2023/09/13 08:25:30;;;;;;;6.45;3.55;;;;;;;;;;6288016;22;20038;-53
2023/09/13 08:27:57;;;;;;;6.22;3.13;;;;;;;;;;6287740;22;20002;-52
2023/09/13 08:30:24;;;;;;;4.00;3.40;;;;;;;;;;6285064;22;20228;-51
2023/09/13 08:32:52;;;;;;;3.72;2.97;;;;;;;;;;6287935;22;20098;-52
2023/09/13 08:35:19;;;;;;;5.18;3.28;;;;;;;;;;6287553;22;20050;-53
2023/09/13 08:37:45;;;;;;;6.43;3.25;;;;;;;;;;6287858;22;20065;-55
2023/09/13 08:40:12;;;;;;;4.38;3.45;;;;;;;;;;6288395;22;19999;-52
2023/09/13 08:42:43;;;;;;;6.85;3.05;;;;;;;;;;6287640;22;20318;-52
2023/09/13 08:45:10;;;;;;;6.40;3.08;;;;;;;;;;6287699;22;20054;-54
2023/09/13 08:47:41;;;;;;;5.50;3.30;;;;;;;;;;6287795;22;19988;-56
2023/09/13 08:50:08;;;;;;;4.40;2.92;;;;;;;;;;6288366;22;20058;-55
2023/09/13 08:52:36;;;;;;;3.47;3.10;;;;;;;;;;6287845;22;20008;-54
2023/09/13 08:55:04;;;;;;;9.82;3.15;;;;;;;;;;6288135;22;20014;-54
2023/09/13 08:57:31;;;;;;;13.52;3.88;;;;;;;;;;6287767;22;20057;-57
2023/09/13 08:59:57;;;;;;;12.18;3.50;;;;;;;;;;6287552;22;20055;-60
2023/09/13 09:02:26;;;;;;;6.45;3.28;;;;;;;;;;6287497;22;19987;-56
2023/09/13 09:04:52;;;;;;;5.28;2.97;;;;;;;;;;6288156;22;20023;-57
2023/09/13 09:07:21;;;;;;;8.65;3.22;;;;;;;;;;6286060;22;20056;-55
2023/09/13 09:09:48;;;;;;;8.15;3.40;;;;;;;;;;6287715;22;20056;-56
2023/09/13 09:12:19;;;;;;;8.85;4.28;;;;;;;;;;6286059;22;19999;-52
2023/09/13 09:14:50;;;;;;;10.57;4.13;;;;;;;;;;6288059;22;20015;-53
2023/09/13 09:17:22;;;;;;;8.17;3.40;;;;;;;;;;6287253;22;19999;-54
2023/09/13 09:19:49;;;;;;;5.15;3.20;;;;;;;;;;6287734;22;20007;-53
2023/09/13 09:22:17;;;;;;;7.38;2.90;;;;;;;;;;6287435;22;19991;-52
2023/09/13 09:24:44;;;;;;;6.38;3.15;;;;;;;;;;6287384;22;19999;-54
2023/09/13 09:27:12;;;;;;;7.50;2.70;;;;;;;;;;6287259;22;20340;-54
2023/09/13 09:29:39;;;;;;;3.88;2.65;;;;;;;;;;6286838;22;20007;-51
2023/09/13 09:32:08;;;;;;;10.82;3.22;;;;;;;;;;6287167;22;20292;-53
2023/09/13 09:34:39;;;;;;;6.35;2.88;;;;;;;;;;6287812;22;20012;-54
2023/09/13 09:37:08;;;;;;;4.88;2.88;;;;;;;;;;6287307;22;20051;-52
2023/09/13 09:39:39;;;;;;;3.53;2.88;;;;;;;;;;6287753;22;20066;-54
2023/09/13 09:42:06;;;;;;;7.32;3.00;;;;;;;;;;6287281;22;20058;-54
2023/09/13 09:44:33;;;;;;;5.90;3.17;;;;;;;;;;6287551;22;20015;-55
2023/09/13 09:47:00;;;;;;;4.53;3.08;;;;;;;;;;6287247;22;19996;-52
2023/09/13 09:49:26;;;;;;;5.07;3.13;;;;;;;;;;6287729;22;20007;-60
2023/09/13 09:51:54;;;;;;;4.32;2.80;;;;;;;;;;6287070;22;19991;-61
2023/09/13 09:54:21;;;;;;;4.15;2.95;;;;;;;;;;6260293;22;20046;-61
2023/09/13 09:56:48;;;;;;;4.97;3.00;;;;;;;;;;6286701;22;20011;-61
2023/09/13 09:59:14;;;;;;;6.20;3.00;;;;;;;;;;6287098;22;20041;-63
2023/09/13 10:01:43;;;;;;;5.45;3.05;;;;;;;;;;6286984;22;20003;-53
2023/09/13 10:04:11;;;;;;;8.90;3.60;;;;;;;;;;6287406;22;20003;-53
2023/09/13 10:06:37;;;;;;;5.72;3.13;;;;;;;;;;6286952;22;19988;-54
2023/09/13 10:09:04;;;;;;;5.88;4.00;;;;;;;;;;6287315;22;20195;-51
2023/09/13 10:11:31;;;;;;;8.30;3.83;;;;;;;;;;6287133;22;20326;-54
2023/09/13 10:13:58;;;;;;;10.98;4.78;;;;;;;;;;6287137;22;20003;-54
2023/09/13 10:16:31;;;;;;;8.75;4.03;;;;;;;;;;6287118;22;20027;-54
2023/09/13 10:19:03;;;;;;;9.60;3.78;;;;;;;;;;6286591;22;20027;-53
2023/09/13 10:21:32;;;;;;;6.60;3.97;;;;;;;;;;6286233;22;20035;-57
2023/09/13 10:24:03;;;;;;;8.55;4.07;;;;;;;;;;6286891;22;20008;-56
2023/09/13 10:26:33;;;;;;;9.77;4.32;;;;;;;;;;6286470;22;19995;-53
2023/09/13 10:29:05;;;;;;;9.30;4.22;;;;;;;;;;6286600;22;20027;-54
2023/09/13 10:31:33;;;;;;;5.95;3.28;;;;;;;;;;6286945;22;20103;-56
2023/09/13 10:34:01;;;;;;;9.32;3.50;;;;;;;;;;6286397;22;20008;-61
2023/09/13 10:36:37;;;;;;;8.32;3.30;;;;;;;;;;6286752;22;20322;-51
2023/09/13 10:39:05;;;;;;;6.88;3.10;;;;;;;;;;6287065;22;20214;-52
2023/09/13 10:41:34;;;;;;;5.78;3.25;;;;;;;;;;6288148;22;20056;-51
2023/09/13 10:44:03;;;;;;;8.50;3.83;;;;;;;;;;6289194;22;19996;-53
2023/09/13 10:46:30;;;;;;;10.85;4.40;;;;;;;;;;6288923;22;19995;-52
2023/09/13 10:48:57;;;;;;;9.20;4.07;;;;;;;;;;6288887;22;20087;-52
2023/09/13 10:51:25;;;;;;;8.93;4.45;;;;;;;;;;6288698;22;20054;-51
2023/09/13 10:53:52;;;;;;;8.05;4.10;;;;;;;;;;6288908;22;20192;-55
2023/09/13 10:56:19;;;;;;;7.55;3.67;;;;;;;;;;6288645;22;20018;-64
2023/09/13 10:58:48;;;;;;;10.57;4.55;;;;;;;;;;6287590;22;20083;-69
2023/09/13 11:01:14;;;;;;;8.40;4.95;;;;;;;;;;6261237;22;20006;-62
2023/09/13 11:03:42;;;;;;;8.43;6.10;;;;;;;;;;6260716;22;20027;-63
2023/09/13 11:06:09;;;;;;;7.32;3.75;;;;;;;;;;6288516;22;19988;-61
2023/09/13 11:08:36;;;;;;;6.82;3.90;;;;;;;;;;6288716;22;20054;-62
2023/09/13 11:11:12;;;;;;;8.68;5.00;;;;;;;;;;6261290;22;20007;-66
2023/09/13 11:13:38;;;;;;;12.38;6.85;;;;;;;;;;6287372;22;20004;-65
2023/09/13 11:16:06;;;;;;;9.65;5.10;;;;;;;;;;6259471;22;20038;-64
2023/09/13 11:18:34;;;;;;;7.38;4.78;;;;;;;;;;6286524;22;20011;-69
2023/09/13 11:21:17;;;;;;;7.90;5.28;;;;;;;;;;6286519;22;19996;-69
2023/09/13 11:23:44;;;;;;;31.23;27.92;;;;;;;;;;6287663;22;20011;-62
2023/09/13 11:26:13;;;;;;;10.23;6.22;;;;;;;;;;6288470;22;20187;-53
2023/09/13 11:28:39;;;;;;;9.73;6.43;;;;;;;;;;6288610;22;20008;-60
2023/09/13 11:31:07;;;;;;;14.35;5.70;;;;;;;;;;6288093;22;20284;-59
2023/09/13 11:33:55;;;;;;;7.82;4.93;;;;;;;;;;6288607;22;20008;-59
2023/09/13 11:36:24;;;;;;;9.20;4.88;;;;;;;;;;6288537;22;20004;-59
2023/09/13 11:38:54;;;;;;;9.40;3.95;;;;;;;;;;6288536;22;20175;-60
2023/09/13 11:41:21;;;;;;;5.22;3.90;;;;;;;;;;6288164;22;20045;-60
2023/09/13 11:43:53;;;;;;;10.13;3.67;;;;;;;;;;6288394;22;20295;-61
2023/09/13 11:46:19;;;;;;;;;;;;;;;;;;6287639;22;20040;-60
2023/09/13 11:48:49;;;;;;;8.63;3.47;;;;;;;;;;6286494;22;19906;-60
2023/09/13 11:51:17;;;;;;;7.30;3.40;;;;;;;;;;6286303;22;20004;-60
2023/09/13 11:53:44;;;;;;;9.98;3.47;;;;;;;;;;6287489;22;20361;-60
2023/09/13 11:56:30;;;;;;;7.60;3.13;;;;;;;;;;6287084;22;20003;-60
2023/09/13 11:59:01;;;;;;;5.35;3.10;;;;;;;;;;6287161;22;20353;-59
2023/09/13 12:01:29;;;;;;;4.82;3.05;;;;;;;;;;6288104;22;20030;-60
2023/09/13 12:03:57;;;;;;;7.97;2.95;;;;;;;;;;6288473;22;20058;-59
2023/09/13 12:06:25;;;;;;;5.53;3.03;;;;;;;;;;6288322;22;20157;-60
2023/09/13 12:08:55;;;;;;;7.35;2.63;;;;;;;;;;6288167;22;19999;-59
2023/09/13 12:11:23;;;;;;;5.93;2.55;;;;;;;;;;6288235;22;20004;-59
2023/09/13 12:13:52;;;;;;;6.28;2.92;;;;;;;;;;6288342;22;20309;-60
2023/09/13 12:16:19;;;;;;;6.00;2.75;;;;;;;;;;6287816;22;20002;-59
2023/09/13 12:18:46;;;;;;;6.75;2.47;;;;;;;;;;6288195;22;20007;-59
2023/09/13 12:21:13;;;;;;;3.55;2.45;;;;;;;;;;6287909;22;20038;-59
2023/09/13 12:23:41;;;;;;;4.03;2.55;;;;;;;;;;6287909;22;20000;-59
2023/09/13 12:26:11;;;;;;;5.25;2.50;;;;;;;;;;6287845;22;19999;-60
2023/09/13 12:28:42;;;;;;;10.93;2.72;;;;;;;;;;6288104;22;20172;-60
2023/09/13 12:31:10;;;;;;;4.75;2.50;;;;;;;;;;6287881;22;20042;-59
2023/09/13 12:33:37;;;;;;;4.13;2.38;;;;;;;;;;6287860;22;20322;-59
2023/09/13 12:36:04;;;;;;;5.75;2.70;;;;;;;;;;6287890;22;20030;-57
2023/09/13 12:38:34;;;;;;;3.60;2.60;;;;;;;;;;6287945;22;20000;-59
2023/09/13 12:41:01;;;;;;;5.13;2.60;;;;;;;;;;6287843;22;20000;-60
2023/09/13 12:43:32;;;;;;;6.38;2.70;;;;;;;;;;6287546;22;20000;-60
2023/09/13 12:45:59;;;;;;;6.15;3.13;;;;;;;;;;6287927;22;19996;-60
2023/09/13 12:48:26;;;;;;;4.55;2.70;;;;;;;;;;6287629;22;20007;-59
2023/09/13 12:50:53;;;;;;;9.38;2.63;;;;;;;;;;6287321;22;20000;-58
2023/09/13 12:53:19;;;;;;;6.15;2.70;;;;;;;;;;6287554;22;20000;-60
2023/09/13 12:55:46;;;;;;;5.50;2.65;;;;;;;;;;6287542;22;20004;-59
2023/09/13 12:58:13;;;;;;;7.95;2.85;;;;;;;;;;6287409;22;20061;-60
2023/09/13 13:00:50;;;;;;;11.57;3.17;;;;;;;;;;6287372;22;19992;-60
2023/09/13 13:03:17;;;;;;;10.50;3.10;;;;;;;;;;6287141;22;20378;-59
2023/09/13 13:05:45;;;;;;;6.88;2.90;;;;;;;;;;6287528;22;20284;-59
2023/09/13 13:08:12;;;;;;;4.10;2.30;;;;;;;;;;6287339;22;20023;-60
2023/09/13 13:10:56;;;;;;;5.00;2.70;;;;;;;;;;6287319;22;20019;-61
2023/09/13 13:13:30;;;;;;;6.18;2.58;;;;;;;;;;6287653;22;20018;-60
2023/09/13 13:15:57;;;;;;;5.63;2.88;;;;;;;;;;6287574;22;20196;-58
2023/09/13 13:18:24;;;;;;;5.80;2.60;;;;;;;;;;6287272;22;19992;-59
2023/09/13 13:20:51;;;;;;;6.35;2.58;;;;;;;;;;6287473;22;20000;-59
2023/09/13 13:23:17;;;;;;;6.07;2.58;;;;;;;;;;6287305;22;20004;-59
2023/09/13 13:25:45;;;;;;;6.10;2.75;;;;;;;;;;6287260;22;20051;-59
2023/09/13 13:28:12;;;;;;;5.47;2.42;;;;;;;;;;6287106;22;20003;-58
2023/09/13 13:30:38;;;;;;;4.00;2.50;;;;;;;;;;6287309;22;20010;-59
2023/09/13 13:33:06;;;;;;;33.63;3.75;;;;;;;;;;6287083;22;20049;-58
2023/09/13 13:35:33;;;;;;;16.17;4.00;;;;;;;;;;6287269;22;20008;-60
2023/09/13 13:38:00;;;;;;;18.73;3.53;;;;;;;;;;6287076;22;20019;-60
2023/09/13 13:40:27;;;;;;;16.60;3.45;;;;;;;;;;6287086;22;20014;-60
2023/09/13 13:42:54;;;;;;;13.98;3.25;;;;;;;;;;6287298;22;20232;-59
2023/09/13 13:45:20;;;;;;;15.13;3.60;;;;;;;;;;6287260;22;19995;-60
2023/09/13 13:47:47;;;;;;;16.98;3.33;;;;;;;;;;6287110;22;19992;-59
2023/09/13 13:50:14;;;;;;;15.52;3.53;;;;;;;;;;6287753;22;20007;-59
2023/09/13 13:52:40;;;;;;;19.75;3.90;;;;;;;;;;6287269;22;20055;-59
2023/09/13 13:55:07;;;;;;;20.05;4.30;;;;;;;;;;6287558;22;20007;-59
2023/09/13 13:57:42;;;;;;;18.90;3.90;;;;;;;;;;6287132;22;20299;-59
2023/09/13 14:00:10;;;;;;;16.60;3.85;;;;;;;;;;6287515;22;20007;-59
2023/09/13 14:02:37;;;;;;;18.48;3.95;;;;;;;;;;6287122;22;20010;-60
2023/09/13 14:05:04;;;;;;;20.73;3.60;;;;;;;;;;6287474;22;20027;-60
2023/09/13 14:07:31;;;;;;;11.30;3.67;;;;;;;;;;6287042;22;20299;-60
2023/09/13 14:09:59;;;;;;;13.60;3.40;;;;;;;;;;6287214;22;20037;-59
2023/09/13 14:12:25;;;;;;;12.52;3.78;;;;;;;;;;6287025;22;20018;-59
2023/09/13 14:14:53;;;;;;;18.63;4.18;;;;;;;;;;6287244;22;20031;-59
2023/09/13 14:17:20;;;;;;;12.68;3.70;;;;;;;;;;6286633;22;20004;-59
2023/09/13 14:19:47;;;;;;;13.93;4.13;;;;;;;;;;6287383;22;19992;-60
2023/09/13 14:22:13;;;;;;;13.55;3.50;;;;;;;;;;6286990;22;20004;-61
2023/09/13 14:24:40;;;;;;;11.15;3.05;;;;;;;;;;6287266;22;20004;-61
2023/09/13 14:27:07;;;;;;;9.55;4.07;;;;;;;;;;6287015;22;19994;-61
2023/09/13 14:29:33;;;;;;;13.95;3.67;;;;;;;;;;6286754;22;20053;-63
2023/09/13 14:32:01;;;;;;;16.30;3.70;;;;;;;;;;6286603;22;20018;-59
2023/09/13 14:34:29;;;;;;;22.17;4.60;;;;;;;;;;6287350;22;20000;-59
2023/09/13 14:36:56;;;;;;;20.40;4.43;;;;;;;;;;6286958;22;20000;-59
2023/09/13 14:39:22;;;;;;;21.98;4.57;;;;;;;;;;6286987;22;20188;-59
2023/09/13 14:41:52;;;;;;;22.88;4.07;;;;;;;;;;6286918;22;20180;-59
2023/09/13 14:44:19;;;;;;;18.52;4.15;;;;;;;;;;6287031;22;20004;-59
2023/09/13 14:46:46;;;;;;;12.65;4.72;;;;;;;;;;6286498;22;20004;-59
2023/09/13 14:49:19;;;;;;;19.88;4.32;;;;;;;;;;6286871;22;20280;-59
2023/09/13 14:51:46;;;;;;;21.95;5.15;;;;;;;;;;6286664;22;20247;-59
2023/09/13 14:54:13;;;;;;;22.50;4.63;;;;;;;;;;6286883;22;20292;-59
2023/09/13 14:56:40;;;;;;;14.70;4.70;;;;;;;;;;6286617;22;20148;-59
2023/09/13 14:59:06;;;;;;;19.45;4.50;;;;;;;;;;6287378;22;20286;-59
2023/09/13 15:01:33;;;;;;;19.02;4.18;;;;;;;;;;6286589;22;19999;-58
2023/09/13 15:04:00;;;;;;;15.45;4.25;;;;;;;;;;6286999;22;20060;-60
2023/09/13 15:06:26;;;;;;;15.80;4.10;;;;;;;;;;6286843;22;19992;-60
2023/09/13 15:08:53;;;;;;;12.02;3.83;;;;;;;;;;6286760;22;20062;-61